sensor_id;sensor_type;location;lat;lon;timestamp;P1;durP1;ratioP1;P2;durP2;ratioP2
25687;SDS011;17407;51.120;3.702;2023-07-20T00:01:14;16.80;;;8.82;;
25687;SDS011;17407;51.120;3.702;2023-07-20T00:03:40;18.20;;;8.95;;
25687;SDS011;17407;51.120;3.702;2023-07-20T00:06:06;21.75;;;9.05;;
25687;SDS011;17407;51.120;3.702;2023-07-20T00:08:33;17.80;;;8.45;;
25687;SDS011;17407;51.120;3.702;2023-07-20T00:10:58;23.08;;;9.68;;
25687;SDS011;17407;51.120;3.702;2023-07-20T00:13:24;26.77;;;10.50;;
25687;SDS011;17407;51.120;3.702;2023-07-20T00:15:51;23.65;;;10.65;;
25687;SDS011;17407;51.120;3.702;2023-07-20T00:18:17;24.83;;;10.73;;
25687;SDS011;17407;51.120;3.702;2023-07-20T00:20:42;27.48;;;10.80;;
25687;SDS011;17407;51.120;3.702;2023-07-20T00:23:08;23.90;;;10.13;;
25687;SDS011;17407;51.120;3.702;2023-07-20T00:25:34;24.45;;;10.25;;
25687;SDS011;17407;51.120;3.702;2023-07-20T00:28:00;16.20;;;8.85;;
25687;SDS011;17407;51.120;3.702;2023-07-20T00:30:26;22.38;;;9.68;;
25687;SDS011;17407;51.120;3.702;2023-07-20T00:32:52;18.17;;;10.25;;
25687;SDS011;17407;51.120;3.702;2023-07-20T00:35:17;23.52;;;9.93;;
25687;SDS011;17407;51.120;3.702;2023-07-20T00:37:43;20.33;;;10.32;;
25687;SDS011;17407;51.120;3.702;2023-07-20T00:40:09;21.70;;;11.20;;
25687;SDS011;17407;51.120;3.702;2023-07-20T00:42:35;21.85;;;9.07;;
25687;SDS011;17407;51.120;3.702;2023-07-20T00:45:00;15.82;;;10.27;;
25687;SDS011;17407;51.120;3.702;2023-07-20T00:47:26;19.02;;;10.52;;
25687;SDS011;17407;51.120;3.702;2023-07-20T00:49:52;24.52;;;10.00;;
25687;SDS011;17407;51.120;3.702;2023-07-20T00:52:19;15.82;;;9.10;;
25687;SDS011;17407;51.120;3.702;2023-07-20T00:54:47;26.10;;;12.02;;
25687;SDS011;17407;51.120;3.702;2023-07-20T00:57:14;16.73;;;9.15;;
25687;SDS011;17407;51.120;3.702;2023-07-20T00:59:40;15.43;;;9.18;;
25687;SDS011;17407;51.120;3.702;2023-07-20T01:02:06;18.10;;;10.20;;
25687;SDS011;17407;51.120;3.702;2023-07-20T01:04:32;28.27;;;10.52;;
25687;SDS011;17407;51.120;3.702;2023-07-20T01:09:48;15.35;;;10.05;;
25687;SDS011;17407;51.120;3.702;2023-07-20T01:15:00;21.33;;;10.48;;
25687;SDS011;17407;51.120;3.702;2023-07-20T01:17:27;25.23;;;10.35;;
25687;SDS011;17407;51.120;3.702;2023-07-20T01:19:52;21.33;;;10.30;;
25687;SDS011;17407;51.120;3.702;2023-07-20T01:23:04;16.88;;;10.70;;
25687;SDS011;17407;51.120;3.702;2023-07-20T01:33:57;16.38;;;10.18;;
25687;SDS011;17407;51.120;3.702;2023-07-20T01:36:28;17.58;;;10.57;;
25687;SDS011;17407;51.120;3.702;2023-07-20T01:38:56;24.02;;;10.93;;
25687;SDS011;17407;51.120;3.702;2023-07-20T01:41:22;18.08;;;11.32;;
25687;SDS011;17407;51.120;3.702;2023-07-20T01:43:48;18.15;;;10.85;;
25687;SDS011;17407;51.120;3.702;2023-07-20T01:46:14;16.25;;;9.80;;
25687;SDS011;17407;51.120;3.702;2023-07-20T01:48:39;21.83;;;10.38;;
25687;SDS011;17407;51.120;3.702;2023-07-20T01:51:05;19.58;;;10.00;;
25687;SDS011;17407;51.120;3.702;2023-07-20T01:53:31;15.02;;;8.30;;
25687;SDS011;17407;51.120;3.702;2023-07-20T01:55:56;14.70;;;8.95;;
25687;SDS011;17407;51.120;3.702;2023-07-20T01:58:22;14.93;;;9.85;;
25687;SDS011;17407;51.120;3.702;2023-07-20T02:00:48;12.30;;;9.50;;
25687;SDS011;17407;51.120;3.702;2023-07-20T02:03:14;15.35;;;9.05;;
25687;SDS011;17407;51.120;3.702;2023-07-20T02:05:41;13.07;;;9.13;;
25687;SDS011;17407;51.120;3.702;2023-07-20T02:08:07;19.38;;;10.68;;
25687;SDS011;17407;51.120;3.702;2023-07-20T02:10:34;14.63;;;9.43;;
25687;SDS011;17407;51.120;3.702;2023-07-20T02:13:00;13.40;;;9.73;;
25687;SDS011;17407;51.120;3.702;2023-07-20T02:15:25;19.98;;;11.50;;
25687;SDS011;17407;51.120;3.702;2023-07-20T02:17:52;14.48;;;10.63;;
25687;SDS011;17407;51.120;3.702;2023-07-20T02:20:18;17.85;;;10.15;;
25687;SDS011;17407;51.120;3.702;2023-07-20T02:22:44;15.20;;;9.60;;
25687;SDS011;17407;51.120;3.702;2023-07-20T02:25:10;16.17;;;8.18;;
25687;SDS011;17407;51.120;3.702;2023-07-20T02:27:36;19.77;;;10.80;;
25687;SDS011;17407;51.120;3.702;2023-07-20T02:30:02;17.80;;;12.38;;
25687;SDS011;17407;51.120;3.702;2023-07-20T02:32:29;18.67;;;12.40;;
25687;SDS011;17407;51.120;3.702;2023-07-20T02:34:55;20.45;;;12.30;;
25687;SDS011;17407;51.120;3.702;2023-07-20T02:37:21;23.27;;;13.80;;
25687;SDS011;17407;51.120;3.702;2023-07-20T02:39:46;25.85;;;13.85;;
25687;SDS011;17407;51.120;3.702;2023-07-20T02:42:12;17.55;;;12.82;;
25687;SDS011;17407;51.120;3.702;2023-07-20T02:44:38;19.52;;;12.82;;
25687;SDS011;17407;51.120;3.702;2023-07-20T02:47:03;22.48;;;13.57;;
25687;SDS011;17407;51.120;3.702;2023-07-20T02:49:29;17.50;;;13.65;;
25687;SDS011;17407;51.120;3.702;2023-07-20T02:51:55;20.95;;;12.85;;
25687;SDS011;17407;51.120;3.702;2023-07-20T02:54:20;20.40;;;14.38;;
25687;SDS011;17407;51.120;3.702;2023-07-20T02:56:46;22.13;;;14.73;;
25687;SDS011;17407;51.120;3.702;2023-07-20T02:59:12;28.27;;;15.50;;
25687;SDS011;17407;51.120;3.702;2023-07-20T03:01:37;19.33;;;13.73;;
25687;SDS011;17407;51.120;3.702;2023-07-20T03:04:03;21.83;;;14.30;;
25687;SDS011;17407;51.120;3.702;2023-07-20T03:06:29;24.48;;;14.20;;
25687;SDS011;17407;51.120;3.702;2023-07-20T03:08:55;22.70;;;14.68;;
25687;SDS011;17407;51.120;3.702;2023-07-20T03:11:21;26.30;;;14.85;;
25687;SDS011;17407;51.120;3.702;2023-07-20T03:13:46;20.70;;;14.07;;
25687;SDS011;17407;51.120;3.702;2023-07-20T03:16:13;24.90;;;14.95;;
25687;SDS011;17407;51.120;3.702;2023-07-20T03:18:42;23.58;;;14.63;;
25687;SDS011;17407;51.120;3.702;2023-07-20T03:21:08;23.63;;;14.60;;
25687;SDS011;17407;51.120;3.702;2023-07-20T03:23:38;21.50;;;14.73;;
25687;SDS011;17407;51.120;3.702;2023-07-20T03:26:04;18.65;;;13.20;;
25687;SDS011;17407;51.120;3.702;2023-07-20T03:28:33;18.73;;;12.68;;
25687;SDS011;17407;51.120;3.702;2023-07-20T03:31:03;20.48;;;13.75;;
25687;SDS011;17407;51.120;3.702;2023-07-20T03:33:29;18.20;;;13.75;;
25687;SDS011;17407;51.120;3.702;2023-07-20T03:35:55;20.80;;;14.48;;
25687;SDS011;17407;51.120;3.702;2023-07-20T03:38:22;20.30;;;14.15;;
25687;SDS011;17407;51.120;3.702;2023-07-20T03:40:51;20.38;;;13.57;;
25687;SDS011;17407;51.120;3.702;2023-07-20T03:43:17;17.35;;;13.27;;
25687;SDS011;17407;51.120;3.702;2023-07-20T03:45:43;18.77;;;13.23;;
25687;SDS011;17407;51.120;3.702;2023-07-20T03:48:10;19.45;;;13.93;;
25687;SDS011;17407;51.120;3.702;2023-07-20T03:50:36;18.83;;;12.43;;
25687;SDS011;17407;51.120;3.702;2023-07-20T03:53:02;16.75;;;11.77;;
25687;SDS011;17407;51.120;3.702;2023-07-20T03:55:28;18.60;;;13.60;;
25687;SDS011;17407;51.120;3.702;2023-07-20T03:57:53;17.23;;;12.82;;
25687;SDS011;17407;51.120;3.702;2023-07-20T04:00:19;18.70;;;13.23;;
25687;SDS011;17407;51.120;3.702;2023-07-20T04:02:45;18.88;;;12.90;;
25687;SDS011;17407;51.120;3.702;2023-07-20T04:05:10;21.17;;;13.90;;
25687;SDS011;17407;51.120;3.702;2023-07-20T04:07:36;18.63;;;12.80;;
25687;SDS011;17407;51.120;3.702;2023-07-20T04:10:02;20.50;;;13.07;;
25687;SDS011;17407;51.120;3.702;2023-07-20T04:12:28;19.23;;;13.48;;
25687;SDS011;17407;51.120;3.702;2023-07-20T04:14:53;17.80;;;12.90;;
25687;SDS011;17407;51.120;3.702;2023-07-20T04:17:19;22.35;;;14.00;;
25687;SDS011;17407;51.120;3.702;2023-07-20T04:19:44;21.50;;;13.10;;
25687;SDS011;17407;51.120;3.702;2023-07-20T04:22:10;15.68;;;12.45;;
25687;SDS011;17407;51.120;3.702;2023-07-20T04:24:36;20.88;;;13.27;;
25687;SDS011;17407;51.120;3.702;2023-07-20T04:27:01;15.52;;;13.13;;
25687;SDS011;17407;51.120;3.702;2023-07-20T04:29:27;17.67;;;13.02;;
25687;SDS011;17407;51.120;3.702;2023-07-20T04:31:53;16.95;;;13.45;;
25687;SDS011;17407;51.120;3.702;2023-07-20T04:34:18;19.33;;;13.57;;
25687;SDS011;17407;51.120;3.702;2023-07-20T04:36:44;20.60;;;14.05;;
25687;SDS011;17407;51.120;3.702;2023-07-20T04:39:10;18.20;;;14.10;;
25687;SDS011;17407;51.120;3.702;2023-07-20T04:41:36;20.30;;;13.20;;
25687;SDS011;17407;51.120;3.702;2023-07-20T04:44:02;17.58;;;13.43;;
25687;SDS011;17407;51.120;3.702;2023-07-20T04:46:28;20.70;;;13.25;;
25687;SDS011;17407;51.120;3.702;2023-07-20T04:48:53;17.50;;;13.13;;
25687;SDS011;17407;51.120;3.702;2023-07-20T04:51:19;16.88;;;13.25;;
25687;SDS011;17407;51.120;3.702;2023-07-20T04:53:48;18.05;;;12.02;;
25687;SDS011;17407;51.120;3.702;2023-07-20T04:56:14;23.60;;;13.77;;
25687;SDS011;17407;51.120;3.702;2023-07-20T04:58:40;16.83;;;13.43;;
25687;SDS011;17407;51.120;3.702;2023-07-20T05:01:06;21.05;;;14.15;;
25687;SDS011;17407;51.120;3.702;2023-07-20T05:03:33;18.05;;;13.80;;
25687;SDS011;17407;51.120;3.702;2023-07-20T05:05:58;23.20;;;14.40;;
25687;SDS011;17407;51.120;3.702;2023-07-20T05:08:24;18.98;;;13.77;;
25687;SDS011;17407;51.120;3.702;2023-07-20T05:10:50;18.13;;;14.30;;
25687;SDS011;17407;51.120;3.702;2023-07-20T05:13:16;19.52;;;13.65;;
25687;SDS011;17407;51.120;3.702;2023-07-20T05:15:42;18.65;;;15.25;;
25687;SDS011;17407;51.120;3.702;2023-07-20T05:18:07;22.88;;;15.10;;
25687;SDS011;17407;51.120;3.702;2023-07-20T05:20:36;20.55;;;14.35;;
25687;SDS011;17407;51.120;3.702;2023-07-20T05:23:02;19.23;;;14.35;;
25687;SDS011;17407;51.120;3.702;2023-07-20T05:25:28;16.13;;;13.18;;
25687;SDS011;17407;51.120;3.702;2023-07-20T05:27:53;18.35;;;14.10;;
25687;SDS011;17407;51.120;3.702;2023-07-20T05:30:20;16.30;;;12.43;;
25687;SDS011;17407;51.120;3.702;2023-07-20T05:32:46;17.90;;;12.68;;
25687;SDS011;17407;51.120;3.702;2023-07-20T05:35:16;19.92;;;14.63;;
25687;SDS011;17407;51.120;3.702;2023-07-20T05:37:42;19.63;;;13.50;;
25687;SDS011;17407;51.120;3.702;2023-07-20T05:40:09;18.27;;;14.27;;
25687;SDS011;17407;51.120;3.702;2023-07-20T05:42:37;18.23;;;14.10;;
25687;SDS011;17407;51.120;3.702;2023-07-20T05:45:03;18.50;;;14.05;;
25687;SDS011;17407;51.120;3.702;2023-07-20T05:47:29;15.00;;;12.65;;
25687;SDS011;17407;51.120;3.702;2023-07-20T05:49:54;13.60;;;12.00;;
25687;SDS011;17407;51.120;3.702;2023-07-20T05:52:20;12.48;;;10.50;;
25687;SDS011;17407;51.120;3.702;2023-07-20T05:54:46;14.20;;;11.77;;
25687;SDS011;17407;51.120;3.702;2023-07-20T05:57:11;16.35;;;12.32;;
25687;SDS011;17407;51.120;3.702;2023-07-20T05:59:37;15.23;;;11.93;;
25687;SDS011;17407;51.120;3.702;2023-07-20T06:02:06;12.55;;;10.00;;
25687;SDS011;17407;51.120;3.702;2023-07-20T06:04:33;13.43;;;10.18;;
25687;SDS011;17407;51.120;3.702;2023-07-20T06:06:58;12.68;;;10.23;;
25687;SDS011;17407;51.120;3.702;2023-07-20T06:09:24;11.50;;;10.35;;
25687;SDS011;17407;51.120;3.702;2023-07-20T06:11:50;9.63;;;8.73;;
25687;SDS011;17407;51.120;3.702;2023-07-20T06:14:15;10.32;;;8.52;;
25687;SDS011;17407;51.120;3.702;2023-07-20T06:16:41;11.93;;;8.40;;
25687;SDS011;17407;51.120;3.702;2023-07-20T06:19:07;11.52;;;7.68;;
25687;SDS011;17407;51.120;3.702;2023-07-20T06:21:32;7.60;;;6.82;;
25687;SDS011;17407;51.120;3.702;2023-07-20T06:23:58;7.35;;;6.65;;
25687;SDS011;17407;51.120;3.702;2023-07-20T06:26:24;8.45;;;7.65;;
25687;SDS011;17407;51.120;3.702;2023-07-20T06:28:50;9.90;;;7.47;;
25687;SDS011;17407;51.120;3.702;2023-07-20T06:31:16;6.10;;;5.47;;
25687;SDS011;17407;51.120;3.702;2023-07-20T06:33:42;7.32;;;5.55;;
25687;SDS011;17407;51.120;3.702;2023-07-20T06:36:09;5.70;;;5.20;;
25687;SDS011;17407;51.120;3.702;2023-07-20T06:38:36;6.60;;;4.60;;
25687;SDS011;17407;51.120;3.702;2023-07-20T06:41:02;6.60;;;5.13;;
25687;SDS011;17407;51.120;3.702;2023-07-20T06:43:27;6.03;;;4.95;;
25687;SDS011;17407;51.120;3.702;2023-07-20T06:45:53;5.10;;;3.30;;
25687;SDS011;17407;51.120;3.702;2023-07-20T06:48:22;3.35;;;3.08;;
25687;SDS011;17407;51.120;3.702;2023-07-20T06:50:47;2.58;;;2.38;;
25687;SDS011;17407;51.120;3.702;2023-07-20T06:53:13;2.55;;;2.35;;
25687;SDS011;17407;51.120;3.702;2023-07-20T06:55:39;2.92;;;2.50;;
25687;SDS011;17407;51.120;3.702;2023-07-20T06:58:06;1.77;;;1.63;;
25687;SDS011;17407;51.120;3.702;2023-07-20T07:00:32;3.42;;;2.25;;
25687;SDS011;17407;51.120;3.702;2023-07-20T07:02:57;2.20;;;2.00;;
25687;SDS011;17407;51.120;3.702;2023-07-20T07:05:23;2.60;;;1.50;;
25687;SDS011;17407;51.120;3.702;2023-07-20T07:07:49;1.27;;;1.10;;
25687;SDS011;17407;51.120;3.702;2023-07-20T07:10:14;1.42;;;1.25;;
25687;SDS011;17407;51.120;3.702;2023-07-20T07:12:40;2.25;;;1.52;;
25687;SDS011;17407;51.120;3.702;2023-07-20T07:15:06;1.42;;;1.33;;
25687;SDS011;17407;51.120;3.702;2023-07-20T07:17:32;1.60;;;1.15;;
25687;SDS011;17407;51.120;3.702;2023-07-20T07:19:58;1.30;;;1.20;;
25687;SDS011;17407;51.120;3.702;2023-07-20T07:22:23;1.67;;;0.90;;
25687;SDS011;17407;51.120;3.702;2023-07-20T07:24:50;0.75;;;0.75;;
25687;SDS011;17407;51.120;3.702;2023-07-20T07:27:16;0.73;;;0.73;;
25687;SDS011;17407;51.120;3.702;2023-07-20T07:29:42;0.98;;;0.98;;
25687;SDS011;17407;51.120;3.702;2023-07-20T07:32:10;1.02;;;0.95;;
25687;SDS011;17407;51.120;3.702;2023-07-20T07:34:36;1.02;;;1.00;;
25687;SDS011;17407;51.120;3.702;2023-07-20T07:37:02;1.80;;;0.98;;
25687;SDS011;17407;51.120;3.702;2023-07-20T07:39:29;1.00;;;0.90;;
25687;SDS011;17407;51.120;3.702;2023-07-20T07:41:55;0.85;;;0.52;;
25687;SDS011;17407;51.120;3.702;2023-07-20T07:44:21;1.20;;;1.10;;
25687;SDS011;17407;51.120;3.702;2023-07-20T07:46:47;0.77;;;0.70;;
25687;SDS011;17407;51.120;3.702;2023-07-20T07:49:12;0.82;;;0.82;;
25687;SDS011;17407;51.120;3.702;2023-07-20T07:51:38;0.82;;;0.82;;
25687;SDS011;17407;51.120;3.702;2023-07-20T07:54:04;1.38;;;0.98;;
25687;SDS011;17407;51.120;3.702;2023-07-20T07:56:29;0.82;;;0.77;;
25687;SDS011;17407;51.120;3.702;2023-07-20T07:58:55;2.83;;;1.42;;
25687;SDS011;17407;51.120;3.702;2023-07-20T08:01:21;1.10;;;1.10;;
25687;SDS011;17407;51.120;3.702;2023-07-20T08:03:47;1.33;;;1.23;;
25687;SDS011;17407;51.120;3.702;2023-07-20T08:06:13;0.80;;;0.80;;
25687;SDS011;17407;51.120;3.702;2023-07-20T08:08:39;1.50;;;0.90;;
25687;SDS011;17407;51.120;3.702;2023-07-20T08:11:05;1.55;;;1.45;;
25687;SDS011;17407;51.120;3.702;2023-07-20T08:13:31;1.10;;;1.10;;
25687;SDS011;17407;51.120;3.702;2023-07-20T08:15:57;2.50;;;0.90;;
25687;SDS011;17407;51.120;3.702;2023-07-20T08:18:23;1.17;;;1.13;;
25687;SDS011;17407;51.120;3.702;2023-07-20T08:20:49;1.30;;;0.90;;
25687;SDS011;17407;51.120;3.702;2023-07-20T08:23:14;1.67;;;1.13;;
25687;SDS011;17407;51.120;3.702;2023-07-20T08:25:40;0.93;;;0.93;;
25687;SDS011;17407;51.120;3.702;2023-07-20T08:28:13;2.10;;;1.33;;
25687;SDS011;17407;51.120;3.702;2023-07-20T08:30:43;2.35;;;1.05;;
25687;SDS011;17407;51.120;3.702;2023-07-20T08:33:10;1.08;;;1.00;;
25687;SDS011;17407;51.120;3.702;2023-07-20T08:35:37;0.85;;;0.85;;
25687;SDS011;17407;51.120;3.702;2023-07-20T08:38:03;1.02;;;0.80;;
25687;SDS011;17407;51.120;3.702;2023-07-20T08:40:30;1.92;;;1.10;;
25687;SDS011;17407;51.120;3.702;2023-07-20T08:43:03;1.10;;;1.00;;
25687;SDS011;17407;51.120;3.702;2023-07-20T08:45:29;1.10;;;1.00;;
25687;SDS011;17407;51.120;3.702;2023-07-20T08:48:01;1.00;;;1.00;;
25687;SDS011;17407;51.120;3.702;2023-07-20T08:50:28;1.00;;;0.90;;
25687;SDS011;17407;51.120;3.702;2023-07-20T08:52:56;1.20;;;1.10;;
25687;SDS011;17407;51.120;3.702;2023-07-20T08:55:23;1.33;;;1.02;;
25687;SDS011;17407;51.120;3.702;2023-07-20T08:57:51;1.20;;;1.10;;
25687;SDS011;17407;51.120;3.702;2023-07-20T09:00:19;0.85;;;0.70;;
25687;SDS011;17407;51.120;3.702;2023-07-20T09:02:46;1.05;;;1.00;;
25687;SDS011;17407;51.120;3.702;2023-07-20T09:05:14;1.08;;;0.93;;
25687;SDS011;17407;51.120;3.702;2023-07-20T09:07:40;1.15;;;1.05;;
25687;SDS011;17407;51.120;3.702;2023-07-20T09:10:06;3.53;;;1.40;;
25687;SDS011;17407;51.120;3.702;2023-07-20T09:12:35;1.60;;;1.42;;
25687;SDS011;17407;51.120;3.702;2023-07-20T09:15:03;3.83;;;1.30;;
25687;SDS011;17407;51.120;3.702;2023-07-20T09:17:29;1.33;;;1.30;;
25687;SDS011;17407;51.120;3.702;2023-07-20T09:19:55;1.70;;;1.60;;
25687;SDS011;17407;51.120;3.702;2023-07-20T09:22:21;1.80;;;1.70;;
25687;SDS011;17407;51.120;3.702;2023-07-20T09:24:47;1.63;;;1.20;;
25687;SDS011;17407;51.120;3.702;2023-07-20T09:27:13;1.27;;;1.17;;
25687;SDS011;17407;51.120;3.702;2023-07-20T09:29:47;1.25;;;1.20;;
25687;SDS011;17407;51.120;3.702;2023-07-20T09:32:14;1.00;;;0.95;;
25687;SDS011;17407;51.120;3.702;2023-07-20T09:34:46;2.70;;;1.00;;
25687;SDS011;17407;51.120;3.702;2023-07-20T09:37:14;2.60;;;1.08;;
25687;SDS011;17407;51.120;3.702;2023-07-20T09:39:48;1.08;;;1.08;;
25687;SDS011;17407;51.120;3.702;2023-07-20T09:42:18;1.80;;;1.70;;
25687;SDS011;17407;51.120;3.702;2023-07-20T09:44:45;2.10;;;1.60;;
25687;SDS011;17407;51.120;3.702;2023-07-20T09:47:11;2.03;;;1.40;;
25687;SDS011;17407;51.120;3.702;2023-07-20T09:49:40;2.17;;;1.50;;
25687;SDS011;17407;51.120;3.702;2023-07-20T09:52:07;2.70;;;1.65;;
25687;SDS011;17407;51.120;3.702;2023-07-20T09:54:34;3.13;;;1.63;;
25687;SDS011;17407;51.120;3.702;2023-07-20T09:57:03;1.58;;;1.48;;
25687;SDS011;17407;51.120;3.702;2023-07-20T09:59:32;1.83;;;1.20;;
25687;SDS011;17407;51.120;3.702;2023-07-20T10:01:57;1.73;;;1.63;;
25687;SDS011;17407;51.120;3.702;2023-07-20T10:04:25;2.05;;;1.75;;
25687;SDS011;17407;51.120;3.702;2023-07-20T10:06:54;1.92;;;1.50;;
25687;SDS011;17407;51.120;3.702;2023-07-20T10:09:21;2.13;;;1.52;;
25687;SDS011;17407;51.120;3.702;2023-07-20T10:11:52;1.98;;;1.77;;
25687;SDS011;17407;51.120;3.702;2023-07-20T10:14:22;2.63;;;1.73;;
25687;SDS011;17407;51.120;3.702;2023-07-20T10:16:53;2.60;;;1.88;;
25687;SDS011;17407;51.120;3.702;2023-07-20T10:19:24;1.70;;;1.13;;
25687;SDS011;17407;51.120;3.702;2023-07-20T10:22:07;1.52;;;1.40;;
25687;SDS011;17407;51.120;3.702;2023-07-20T10:24:38;1.52;;;1.42;;
25687;SDS011;17407;51.120;3.702;2023-07-20T10:27:06;1.83;;;1.52;;
25687;SDS011;17407;51.120;3.702;2023-07-20T10:29:32;3.92;;;1.80;;
25687;SDS011;17407;51.120;3.702;2023-07-20T10:31:58;1.90;;;1.80;;
25687;SDS011;17407;51.120;3.702;2023-07-20T10:34:24;3.78;;;2.17;;
25687;SDS011;17407;51.120;3.702;2023-07-20T10:36:50;2.08;;;1.70;;
25687;SDS011;17407;51.120;3.702;2023-07-20T10:39:23;1.95;;;1.85;;
25687;SDS011;17407;51.120;3.702;2023-07-20T10:41:50;5.97;;;2.05;;
25687;SDS011;17407;51.120;3.702;2023-07-20T10:44:18;3.65;;;1.65;;
25687;SDS011;17407;51.120;3.702;2023-07-20T10:46:45;1.70;;;1.60;;
25687;SDS011;17407;51.120;3.702;2023-07-20T10:49:11;3.03;;;1.70;;
25687;SDS011;17407;51.120;3.702;2023-07-20T10:54:52;1.83;;;1.73;;
25687;SDS011;17407;51.120;3.702;2023-07-20T10:56:52;3.13;;;1.65;;
25687;SDS011;17407;51.120;3.702;2023-07-20T11:01:49;1.90;;;1.80;;
25687;SDS011;17407;51.120;3.702;2023-07-20T11:04:21;2.90;;;1.48;;
25687;SDS011;17407;51.120;3.702;2023-07-20T11:07:02;2.70;;;1.60;;
25687;SDS011;17407;51.120;3.702;2023-07-20T11:09:33;4.97;;;1.92;;
25687;SDS011;17407;51.120;3.702;2023-07-20T11:14:55;1.83;;;1.73;;
25687;SDS011;17407;51.120;3.702;2023-07-20T11:17:28;2.97;;;1.77;;
25687;SDS011;17407;51.120;3.702;2023-07-20T11:19:58;1.92;;;1.63;;
25687;SDS011;17407;51.120;3.702;2023-07-20T11:22:26;3.35;;;1.90;;
25687;SDS011;17407;51.120;3.702;2023-07-20T11:24:54;2.85;;;1.42;;
25687;SDS011;17407;51.120;3.702;2023-07-20T11:27:21;1.60;;;1.50;;
25687;SDS011;17407;51.120;3.702;2023-07-20T11:29:49;2.08;;;1.88;;
25687;SDS011;17407;51.120;3.702;2023-07-20T11:32:21;4.00;;;1.65;;
25687;SDS011;17407;51.120;3.702;2023-07-20T11:34:47;2.75;;;1.50;;
25687;SDS011;17407;51.120;3.702;2023-07-20T11:37:13;2.97;;;1.50;;
25687;SDS011;17407;51.120;3.702;2023-07-20T11:39:39;3.92;;;2.00;;
25687;SDS011;17407;51.120;3.702;2023-07-20T11:42:05;3.65;;;1.92;;
25687;SDS011;17407;51.120;3.702;2023-07-20T11:44:31;3.28;;;1.95;;
25687;SDS011;17407;51.120;3.702;2023-07-20T11:49:30;2.23;;;2.00;;
25687;SDS011;17407;51.120;3.702;2023-07-20T11:52:00;3.40;;;1.88;;
25687;SDS011;17407;51.120;3.702;2023-07-20T11:54:26;2.10;;;1.90;;
25687;SDS011;17407;51.120;3.702;2023-07-20T11:56:55;2.70;;;2.30;;
25687;SDS011;17407;51.120;3.702;2023-07-20T11:59:21;2.85;;;1.85;;
25687;SDS011;17407;51.120;3.702;2023-07-20T12:01:47;2.60;;;2.28;;
25687;SDS011;17407;51.120;3.702;2023-07-20T12:04:13;5.03;;;2.42;;
25687;SDS011;17407;51.120;3.702;2023-07-20T12:06:38;2.47;;;2.28;;
25687;SDS011;17407;51.120;3.702;2023-07-20T12:09:04;3.92;;;2.30;;
25687;SDS011;17407;51.120;3.702;2023-07-20T12:11:37;3.05;;;2.25;;
25687;SDS011;17407;51.120;3.702;2023-07-20T12:14:03;2.20;;;1.98;;
25687;SDS011;17407;51.120;3.702;2023-07-20T12:16:32;2.38;;;2.08;;
25687;SDS011;17407;51.120;3.702;2023-07-20T12:19:02;3.55;;;1.90;;
25687;SDS011;17407;51.120;3.702;2023-07-20T12:21:30;2.10;;;1.90;;
25687;SDS011;17407;51.120;3.702;2023-07-20T12:23:57;1.85;;;1.70;;
25687;SDS011;17407;51.120;3.702;2023-07-20T12:26:23;1.70;;;1.60;;
25687;SDS011;17407;51.120;3.702;2023-07-20T12:28:50;4.18;;;1.88;;
25687;SDS011;17407;51.120;3.702;2023-07-20T12:31:16;2.83;;;1.90;;
25687;SDS011;17407;51.120;3.702;2023-07-20T12:33:42;2.15;;;1.95;;
25687;SDS011;17407;51.120;3.702;2023-07-20T12:36:08;5.20;;;2.00;;
25687;SDS011;17407;51.120;3.702;2023-07-20T12:38:35;2.50;;;1.80;;
25687;SDS011;17407;51.120;3.702;2023-07-20T12:41:01;4.28;;;1.95;;
25687;SDS011;17407;51.120;3.702;2023-07-20T12:43:28;3.88;;;2.45;;
25687;SDS011;17407;51.120;3.702;2023-07-20T12:45:54;1.98;;;1.80;;
25687;SDS011;17407;51.120;3.702;2023-07-20T12:48:20;2.22;;;1.55;;
25687;SDS011;17407;51.120;3.702;2023-07-20T12:50:46;3.00;;;1.55;;
25687;SDS011;17407;51.120;3.702;2023-07-20T12:53:12;2.15;;;1.40;;
25687;SDS011;17407;51.120;3.702;2023-07-20T12:55:38;2.13;;;1.58;;
25687;SDS011;17407;51.120;3.702;2023-07-20T12:58:04;2.40;;;1.80;;
25687;SDS011;17407;51.120;3.702;2023-07-20T13:00:30;1.90;;;1.65;;
25687;SDS011;17407;51.120;3.702;2023-07-20T13:02:57;4.70;;;1.70;;
25687;SDS011;17407;51.120;3.702;2023-07-20T13:05:23;2.42;;;1.80;;
25687;SDS011;17407;51.120;3.702;2023-07-20T13:07:48;2.03;;;1.52;;
25687;SDS011;17407;51.120;3.702;2023-07-20T13:10:14;2.97;;;1.90;;
25687;SDS011;17407;51.120;3.702;2023-07-20T13:12:40;3.58;;;2.00;;
25687;SDS011;17407;51.120;3.702;2023-07-20T13:15:06;4.32;;;1.80;;
25687;SDS011;17407;51.120;3.702;2023-07-20T13:17:36;2.08;;;1.77;;
25687;SDS011;17407;51.120;3.702;2023-07-20T13:20:07;2.17;;;1.58;;
25687;SDS011;17407;51.120;3.702;2023-07-20T13:22:35;3.47;;;2.15;;
25687;SDS011;17407;51.120;3.702;2023-07-20T13:25:01;4.30;;;2.22;;
25687;SDS011;17407;51.120;3.702;2023-07-20T13:27:27;3.08;;;2.00;;
25687;SDS011;17407;51.120;3.702;2023-07-20T13:29:53;2.53;;;2.20;;
25687;SDS011;17407;51.120;3.702;2023-07-20T13:32:18;4.63;;;2.05;;
25687;SDS011;17407;51.120;3.702;2023-07-20T13:34:44;2.28;;;2.10;;
25687;SDS011;17407;51.120;3.702;2023-07-20T13:37:10;3.45;;;2.40;;
25687;SDS011;17407;51.120;3.702;2023-07-20T13:39:36;3.70;;;2.80;;
25687;SDS011;17407;51.120;3.702;2023-07-20T13:42:03;3.38;;;2.35;;
25687;SDS011;17407;51.120;3.702;2023-07-20T13:44:33;2.60;;;2.40;;
25687;SDS011;17407;51.120;3.702;2023-07-20T13:47:00;3.95;;;2.72;;
25687;SDS011;17407;51.120;3.702;2023-07-20T13:49:26;3.00;;;2.80;;
25687;SDS011;17407;51.120;3.702;2023-07-20T13:51:52;3.13;;;2.88;;
25687;SDS011;17407;51.120;3.702;2023-07-20T13:54:18;3.42;;;3.03;;
25687;SDS011;17407;51.120;3.702;2023-07-20T13:56:44;4.45;;;3.50;;
25687;SDS011;17407;51.120;3.702;2023-07-20T13:59:09;6.75;;;4.00;;
25687;SDS011;17407;51.120;3.702;2023-07-20T14:01:35;4.85;;;4.20;;
25687;SDS011;17407;51.120;3.702;2023-07-20T14:04:01;5.07;;;4.30;;
25687;SDS011;17407;51.120;3.702;2023-07-20T14:06:29;5.75;;;5.18;;
25687;SDS011;17407;51.120;3.702;2023-07-20T14:08:56;6.70;;;5.25;;
25687;SDS011;17407;51.120;3.702;2023-07-20T14:11:22;7.65;;;5.45;;
25687;SDS011;17407;51.120;3.702;2023-07-20T14:13:49;6.78;;;6.15;;
25687;SDS011;17407;51.120;3.702;2023-07-20T14:16:15;6.72;;;6.15;;
25687;SDS011;17407;51.120;3.702;2023-07-20T14:18:41;7.55;;;6.60;;
25687;SDS011;17407;51.120;3.702;2023-07-20T14:21:07;8.18;;;7.07;;
25687;SDS011;17407;51.120;3.702;2023-07-20T14:23:33;11.73;;;7.30;;
25687;SDS011;17407;51.120;3.702;2023-07-20T14:26:01;8.70;;;6.95;;
25687;SDS011;17407;51.120;3.702;2023-07-20T14:28:30;8.35;;;6.57;;
25687;SDS011;17407;51.120;3.702;2023-07-20T14:30:56;6.88;;;6.15;;
25687;SDS011;17407;51.120;3.702;2023-07-20T14:33:22;8.07;;;6.47;;
25687;SDS011;17407;51.120;3.702;2023-07-20T14:35:48;6.28;;;5.75;;
25687;SDS011;17407;51.120;3.702;2023-07-20T14:38:14;8.00;;;7.25;;
25687;SDS011;17407;51.120;3.702;2023-07-20T14:40:39;7.35;;;6.65;;
25687;SDS011;17407;51.120;3.702;2023-07-20T14:43:06;11.57;;;7.00;;
25687;SDS011;17407;51.120;3.702;2023-07-20T14:45:31;7.22;;;6.53;;
25687;SDS011;17407;51.120;3.702;2023-07-20T14:47:57;7.80;;;6.85;;
25687;SDS011;17407;51.120;3.702;2023-07-20T14:50:24;7.45;;;6.63;;
25687;SDS011;17407;51.120;3.702;2023-07-20T14:52:49;7.88;;;7.07;;
25687;SDS011;17407;51.120;3.702;2023-07-20T14:55:15;7.85;;;7.15;;
25687;SDS011;17407;51.120;3.702;2023-07-20T14:57:42;7.28;;;6.57;;
25687;SDS011;17407;51.120;3.702;2023-07-20T15:00:08;6.85;;;6.20;;